sensor_id;sensor_type;location;lat;lon;timestamp;pressure;altitude;pressure_sealevel;temperature;humidity
46394;BME280;32099;53.588;10.176;2024-03-22T00:00:19;101584.53;;;8.58;91.75
46394;BME280;32099;53.588;10.176;2024-03-22T00:02:45;101569.09;;;8.59;91.36
46394;BME280;32099;53.588;10.176;2024-03-22T00:05:11;101576.38;;;8.58;90.57
46394;BME280;32099;53.588;10.176;2024-03-22T00:07:36;101570.66;;;8.61;92.18
46394;BME280;32099;53.588;10.176;2024-03-22T00:10:02;101551.78;;;8.60;91.67
46394;BME280;32099;53.588;10.176;2024-03-22T00:12:28;101556.91;;;8.63;91.41
46394;BME280;32099;53.588;10.176;2024-03-22T00:14:54;101553.19;;;8.64;91.01
46394;BME280;32099;53.588;10.176;2024-03-22T00:17:23;101545.72;;;8.66;90.93
46394;BME280;32099;53.588;10.176;2024-03-22T00:19:48;101542.72;;;8.69;91.57
46394;BME280;32099;53.588;10.176;2024-03-22T00:22:14;101539.84;;;8.71;90.69
46394;BME280;32099;53.588;10.176;2024-03-22T00:24:40;101529.66;;;8.73;91.32
46394;BME280;32099;53.588;10.176;2024-03-22T00:27:06;101529.50;;;8.74;91.87
46394;BME280;32099;53.588;10.176;2024-03-22T00:29:32;101520.34;;;8.75;91.92
46394;BME280;32099;53.588;10.176;2024-03-22T00:31:57;101453.44;;;8.37;91.69
46394;BME280;32099;53.588;10.176;2024-03-22T00:34:26;101518.88;;;8.81;91.30
46394;BME280;32099;53.588;10.176;2024-03-22T00:36:51;101517.75;;;8.84;91.26
46394;BME280;32099;53.588;10.176;2024-03-22T00:39:17;101514.84;;;8.85;90.98
46394;BME280;32099;53.588;10.176;2024-03-22T00:41:43;101500.78;;;8.90;91.36
46394;BME280;32099;53.588;10.176;2024-03-22T00:44:09;101492.34;;;8.93;91.39
46394;BME280;32099;53.588;10.176;2024-03-22T00:46:35;101500.75;;;9.00;90.83
46394;BME280;32099;53.588;10.176;2024-03-22T00:49:01;101496.84;;;9.02;90.42
46394;BME280;32099;53.588;10.176;2024-03-22T00:51:30;101484.66;;;9.06;91.70
46394;BME280;32099;53.588;10.176;2024-03-22T00:53:56;101479.22;;;9.06;90.50
46394;BME280;32099;53.588;10.176;2024-03-22T00:56:22;101481.78;;;9.08;90.15
46394;BME280;32099;53.588;10.176;2024-03-22T00:58:48;101477.50;;;9.05;90.96
46394;BME280;32099;53.588;10.176;2024-03-22T01:01:14;101481.53;;;9.01;90.93
46394;BME280;32099;53.588;10.176;2024-03-22T01:03:39;101477.81;;;9.02;90.91
46394;BME280;32099;53.588;10.176;2024-03-22T01:06:06;101407.22;;;8.64;90.96
46394;BME280;32099;53.588;10.176;2024-03-22T01:08:34;101466.06;;;9.02;91.18
46394;BME280;32099;53.588;10.176;2024-03-22T01:11:00;101467.78;;;9.03;90.51
46394;BME280;32099;53.588;10.176;2024-03-22T01:13:26;101457.91;;;9.02;90.88
46394;BME280;32099;53.588;10.176;2024-03-22T01:15:52;101450.44;;;9.04;90.53
46394;BME280;32099;53.588;10.176;2024-03-22T01:18:17;101437.88;;;9.03;90.63
46394;BME280;32099;53.588;10.176;2024-03-22T01:20:43;101445.16;;;9.02;90.55
46394;BME280;32099;53.588;10.176;2024-03-22T01:23:09;101445.16;;;9.02;90.29
46394;BME280;32099;53.588;10.176;2024-03-22T01:25:37;101435.16;;;9.03;90.74
46394;BME280;32099;53.588;10.176;2024-03-22T01:28:03;101433.25;;;9.03;90.23
46394;BME280;32099;53.588;10.176;2024-03-22T01:30:30;101420.66;;;9.02;90.51
46394;BME280;32099;53.588;10.176;2024-03-22T01:32:55;101420.84;;;9.01;90.21
46394;BME280;32099;53.588;10.176;2024-03-22T01:35:21;101416.41;;;9.00;91.04
46394;BME280;32099;53.588;10.176;2024-03-22T01:37:47;101394.78;;;8.98;90.59
46394;BME280;32099;53.588;10.176;2024-03-22T01:40:13;101400.38;;;8.97;91.45
46394;BME280;32099;53.588;10.176;2024-03-22T01:42:42;101387.97;;;8.94;91.00
46394;BME280;32099;53.588;10.176;2024-03-22T01:45:12;101376.22;;;8.93;90.43
46394;BME280;32099;53.588;10.176;2024-03-22T01:47:39;101375.06;;;8.96;90.39
46394;BME280;32099;53.588;10.176;2024-03-22T01:50:06;101368.75;;;8.95;90.50
46394;BME280;32099;53.588;10.176;2024-03-22T01:52:33;101368.63;;;8.97;91.20
46394;BME280;32099;53.588;10.176;2024-03-22T01:54:59;101358.75;;;8.96;90.11
46394;BME280;32099;53.588;10.176;2024-03-22T01:57:25;101351.44;;;8.97;91.38
46394;BME280;32099;53.588;10.176;2024-03-22T01:59:55;101348.69;;;8.97;90.85
46394;BME280;32099;53.588;10.176;2024-03-22T02:02:22;101356.56;;;9.00;91.30
46394;BME280;32099;53.588;10.176;2024-03-22T02:04:50;101354.69;;;9.00;90.68
46394;BME280;32099;53.588;10.176;2024-03-22T02:07:15;101351.13;;;9.00;90.98
46394;BME280;32099;53.588;10.176;2024-03-22T02:09:41;101347.88;;;8.96;90.82
46394;BME280;32099;53.588;10.176;2024-03-22T02:12:08;101348.88;;;8.95;90.75
46394;BME280;32099;53.588;10.176;2024-03-22T02:14:34;101340.25;;;9.00;89.95
46394;BME280;32099;53.588;10.176;2024-03-22T02:17:03;101332.78;;;9.02;91.25
46394;BME280;32099;53.588;10.176;2024-03-22T02:19:29;101333.31;;;9.05;90.60
46394;BME280;32099;53.588;10.176;2024-03-22T02:21:55;101321.25;;;9.08;89.98
46394;BME280;32099;53.588;10.176;2024-03-22T02:24:24;101322.94;;;9.09;91.47
46394;BME280;32099;53.588;10.176;2024-03-22T02:26:50;101326.50;;;9.09;90.15
46394;BME280;32099;53.588;10.176;2024-03-22T02:29:16;101317.50;;;9.09;90.96
46394;BME280;32099;53.588;10.176;2024-03-22T02:31:42;101312.78;;;9.11;91.05
46394;BME280;32099;53.588;10.176;2024-03-22T02:34:08;101268.00;;;8.79;90.55
46394;BME280;32099;53.588;10.176;2024-03-22T02:36:34;101319.59;;;9.15;90.41
46394;BME280;32099;53.588;10.176;2024-03-22T02:39:00;101321.16;;;9.18;90.19
46394;BME280;32099;53.588;10.176;2024-03-22T02:41:28;101326.25;;;9.21;90.82
46394;BME280;32099;53.588;10.176;2024-03-22T02:43:54;101325.94;;;9.24;90.13
46394;BME280;32099;53.588;10.176;2024-03-22T02:46:20;101313.72;;;9.28;90.92
46394;BME280;32099;53.588;10.176;2024-03-22T02:48:46;101317.16;;;9.30;90.80
46394;BME280;32099;53.588;10.176;2024-03-22T02:51:11;101316.28;;;9.30;90.95
46394;BME280;32099;53.588;10.176;2024-03-22T02:53:37;101317.81;;;9.32;90.52
46394;BME280;32099;53.588;10.176;2024-03-22T02:56:03;101313.06;;;9.34;91.45
46394;BME280;32099;53.588;10.176;2024-03-22T02:58:32;101307.50;;;9.36;91.33
46394;BME280;32099;53.588;10.176;2024-03-22T03:00:57;101310.03;;;9.37;91.08
46394;BME280;32099;53.588;10.176;2024-03-22T03:03:23;101297.25;;;9.38;91.11
46394;BME280;32099;53.588;10.176;2024-03-22T03:05:49;101305.28;;;9.39;90.74
46394;BME280;32099;53.588;10.176;2024-03-22T03:08:16;101296.63;;;9.44;90.55
46394;BME280;32099;53.588;10.176;2024-03-22T03:10:42;101291.72;;;9.48;90.66
46394;BME280;32099;53.588;10.176;2024-03-22T03:13:08;101298.69;;;9.50;90.35
46394;BME280;32099;53.588;10.176;2024-03-22T03:15:36;101294.97;;;9.51;90.96
46394;BME280;32099;53.588;10.176;2024-03-22T03:18:02;101282.34;;;9.50;91.17
46394;BME280;32099;53.588;10.176;2024-03-22T03:20:28;101268.59;;;9.52;89.85
46394;BME280;32099;53.588;10.176;2024-03-22T03:22:53;101268.59;;;9.52;91.49
46394;BME280;32099;53.588;10.176;2024-03-22T03:25:19;101264.88;;;9.53;91.23
46394;BME280;32099;53.588;10.176;2024-03-22T03:27:45;101258.41;;;9.54;91.53
46394;BME280;32099;53.588;10.176;2024-03-22T03:30:11;101255.69;;;9.54;91.03
46394;BME280;32099;53.588;10.176;2024-03-22T03:32:40;101248.34;;;9.54;90.90
46394;BME280;32099;53.588;10.176;2024-03-22T03:35:06;101249.06;;;9.56;91.13
46394;BME280;32099;53.588;10.176;2024-03-22T03:37:32;101254.31;;;9.58;90.51
46394;BME280;32099;53.588;10.176;2024-03-22T03:39:58;101249.56;;;9.60;90.83
46394;BME280;32099;53.588;10.176;2024-03-22T03:42:24;101249.56;;;9.60;91.05
46394;BME280;32099;53.588;10.176;2024-03-22T03:44:50;101246.66;;;9.62;91.80
46394;BME280;32099;53.588;10.176;2024-03-22T03:47:18;101234.94;;;9.61;91.60
46394;BME280;32099;53.588;10.176;2024-03-22T03:49:50;101235.78;;;9.62;90.90
46394;BME280;32099;53.588;10.176;2024-03-22T03:52:16;101231.91;;;9.64;91.20
46394;BME280;32099;53.588;10.176;2024-03-22T03:54:42;101224.56;;;9.65;89.87
46394;BME280;32099;53.588;10.176;2024-03-22T03:57:08;101217.09;;;9.67;90.52
46394;BME280;32099;53.588;10.176;2024-03-22T03:59:34;101211.47;;;9.68;90.62
46394;BME280;32099;53.588;10.176;2024-03-22T04:02:00;101220.50;;;9.69;91.01
46394;BME280;32099;53.588;10.176;2024-03-22T04:04:26;101215.75;;;9.71;91.25
46394;BME280;32099;53.588;10.176;2024-03-22T04:06:54;101212.84;;;9.72;91.59
46394;BME280;32099;53.588;10.176;2024-03-22T04:09:20;101209.81;;;9.76;90.40
46394;BME280;32099;53.588;10.176;2024-03-22T04:11:46;101202.31;;;9.78;90.54
46394;BME280;32099;53.588;10.176;2024-03-22T04:14:11;101188.72;;;9.78;91.66
46394;BME280;32099;53.588;10.176;2024-03-22T04:16:37;101189.53;;;9.78;91.27
46394;BME280;32099;53.588;10.176;2024-03-22T04:19:03;101187.00;;;9.77;91.25
46394;BME280;32099;53.588;10.176;2024-03-22T04:21:29;101177.81;;;9.78;91.49
46394;BME280;32099;53.588;10.176;2024-03-22T04:23:57;101167.06;;;9.76;91.97
46394;BME280;32099;53.588;10.176;2024-03-22T04:26:24;101158.75;;;9.78;90.87
46394;BME280;32099;53.588;10.176;2024-03-22T04:28:50;101151.09;;;9.81;91.13
46394;BME280;32099;53.588;10.176;2024-03-22T04:31:15;101151.91;;;9.82;90.96
46394;BME280;32099;53.588;10.176;2024-03-22T04:33:41;101156.16;;;9.84;90.83
46394;BME280;32099;53.588;10.176;2024-03-22T04:36:07;101149.72;;;9.85;90.31
46394;BME280;32099;53.588;10.176;2024-03-22T04:38:33;101157.88;;;9.85;90.89
46394;BME280;32099;53.588;10.176;2024-03-22T04:41:01;101154.81;;;9.88;90.81
46394;BME280;32099;53.588;10.176;2024-03-22T04:43:27;101146.66;;;9.88;90.70
46394;BME280;32099;53.588;10.176;2024-03-22T04:45:53;101149.38;;;9.88;90.57
46394;BME280;32099;53.588;10.176;2024-03-22T04:48:19;101141.22;;;9.88;91.02
46394;BME280;32099;53.588;10.176;2024-03-22T04:50:47;101138.47;;;9.88;90.73
46394;BME280;32099;53.588;10.176;2024-03-22T04:53:13;101125.72;;;9.89;91.33
46394;BME280;32099;53.588;10.176;2024-03-22T04:55:39;101122.31;;;9.87;90.33
46394;BME280;32099;53.588;10.176;2024-03-22T04:58:07;101127.91;;;9.85;91.19
46394;BME280;32099;53.588;10.176;2024-03-22T05:00:33;101129.81;;;9.85;91.03
46394;BME280;32099;53.588;10.176;2024-03-22T05:03:00;101078.03;;;9.52;91.50
46394;BME280;32099;53.588;10.176;2024-03-22T05:05:26;101128.59;;;9.87;91.42
46394;BME280;32099;53.588;10.176;2024-03-22T05:07:51;101119.22;;;9.90;90.72
46394;BME280;32099;53.588;10.176;2024-03-22T05:10:17;101110.03;;;9.91;91.04
46394;BME280;32099;53.588;10.176;2024-03-22T05:12:43;101112.78;;;9.91;91.87
46394;BME280;32099;53.588;10.176;2024-03-22T05:15:11;101112.13;;;9.89;91.54
46394;BME280;32099;53.588;10.176;2024-03-22T05:17:37;101111.06;;;9.90;91.33
46394;BME280;32099;53.588;10.176;2024-03-22T05:20:03;101113.63;;;9.92;91.37
46394;BME280;32099;53.588;10.176;2024-03-22T05:22:30;101105.28;;;9.93;91.51
46394;BME280;32099;53.588;10.176;2024-03-22T05:24:56;101107.00;;;9.94;92.16
46394;BME280;32099;53.588;10.176;2024-03-22T05:27:22;101111.25;;;9.97;92.26
46394;BME280;32099;53.588;10.176;2024-03-22T05:29:48;101094.06;;;9.96;91.73
46394;BME280;32099;53.588;10.176;2024-03-22T05:32:16;101103.75;;;9.99;90.75
46394;BME280;32099;53.588;10.176;2024-03-22T05:34:42;101087.41;;;9.99;91.44
46394;BME280;32099;53.588;10.176;2024-03-22T05:37:08;101089.28;;;9.98;91.51
46394;BME280;32099;53.588;10.176;2024-03-22T05:39:33;101083.66;;;10.00;91.91
46394;BME280;32099;53.588;10.176;2024-03-22T05:41:59;101086.06;;;10.03;91.17
46394;BME280;32099;53.588;10.176;2024-03-22T05:44:25;101091.50;;;10.03;91.71
46394;BME280;32099;53.588;10.176;2024-03-22T05:46:51;101095.06;;;10.03;91.57
46394;BME280;32099;53.588;10.176;2024-03-22T05:49:19;101102.22;;;10.04;91.10
46394;BME280;32099;53.588;10.176;2024-03-22T05:51:45;101091.31;;;10.04;91.09
46394;BME280;32099;53.588;10.176;2024-03-22T05:54:10;101089.09;;;10.08;91.54
46394;BME280;32099;53.588;10.176;2024-03-22T05:56:36;101102.19;;;10.13;91.18
46394;BME280;32099;53.588;10.176;2024-03-22T05:59:02;101085.00;;;10.12;91.53
46394;BME280;32099;53.588;10.176;2024-03-22T06:01:27;101082.97;;;10.14;92.13
46394;BME280;32099;53.588;10.176;2024-03-22T06:03:53;101083.47;;;10.18;92.49
46394;BME280;32099;53.588;10.176;2024-03-22T06:06:22;101088.09;;;10.17;92.58
46394;BME280;32099;53.588;10.176;2024-03-22T06:08:48;101087.72;;;10.21;91.86
46394;BME280;32099;53.588;10.176;2024-03-22T06:11:14;101086.56;;;10.23;92.28
46394;BME280;32099;53.588;10.176;2024-03-22T06:13:39;101088.91;;;10.26;92.72
46394;BME280;32099;53.588;10.176;2024-03-22T06:16:05;101074.94;;;10.29;91.92
46394;BME280;32099;53.588;10.176;2024-03-22T06:18:31;101060.97;;;10.32;93.16
46394;BME280;32099;53.588;10.176;2024-03-22T06:20:57;101058.75;;;10.36;92.08
46394;BME280;32099;53.588;10.176;2024-03-22T06:23:25;101058.44;;;10.39;92.38
46394;BME280;32099;53.588;10.176;2024-03-22T06:25:51;101060.97;;;10.41;92.69
46394;BME280;32099;53.588;10.176;2024-03-22T06:28:17;101065.22;;;10.43;92.68
46394;BME280;32099;53.588;10.176;2024-03-22T06:30:43;101067.78;;;10.45;92.22
46394;BME280;32099;53.588;10.176;2024-03-22T06:33:09;101071.16;;;10.47;92.34
46394;BME280;32099;53.588;10.176;2024-03-22T06:35:35;101070.16;;;10.48;92.47
46394;BME280;32099;53.588;10.176;2024-03-22T06:38:01;101060.59;;;10.52;92.20
46394;BME280;32099;53.588;10.176;2024-03-22T06:40:30;101062.13;;;10.55;92.94
46394;BME280;32099;53.588;10.176;2024-03-22T06:42:56;101052.75;;;10.57;91.86
46394;BME280;32099;53.588;10.176;2024-03-22T06:45:22;101050.69;;;10.59;92.62
46394;BME280;32099;53.588;10.176;2024-03-22T06:47:48;101035.00;;;10.61;92.50
46394;BME280;32099;53.588;10.176;2024-03-22T06:50:14;101032.63;;;10.67;92.20
46394;BME280;32099;53.588;10.176;2024-03-22T06:52:39;101031.22;;;10.71;91.43
46394;BME280;32099;53.588;10.176;2024-03-22T06:55:05;101020.50;;;10.69;92.14
46394;BME280;32099;53.588;10.176;2024-03-22T06:57:34;101011.28;;;10.70;91.72
46394;BME280;32099;53.588;10.176;2024-03-22T07:00:00;100998.47;;;10.71;91.90
46394;BME280;32099;53.588;10.176;2024-03-22T07:02:29;100989.47;;;10.70;92.94
46394;BME280;32099;53.588;10.176;2024-03-22T07:04:55;101008.38;;;10.72;92.87
46394;BME280;32099;53.588;10.176;2024-03-22T07:07:21;100973.94;;;10.39;92.66
46394;BME280;32099;53.588;10.176;2024-03-22T07:09:47;101018.94;;;10.75;92.81
46394;BME280;32099;53.588;10.176;2024-03-22T07:12:13;101010.41;;;10.78;93.09
46394;BME280;32099;53.588;10.176;2024-03-22T07:14:41;100999.31;;;10.79;92.71
46394;BME280;32099;53.588;10.176;2024-03-22T07:17:07;100993.50;;;10.83;92.54
46394;BME280;32099;53.588;10.176;2024-03-22T07:19:36;100998.59;;;10.86;93.34
46394;BME280;32099;53.588;10.176;2024-03-22T07:22:01;100999.09;;;10.89;92.32
46394;BME280;32099;53.588;10.176;2024-03-22T07:24:27;100995.34;;;10.90;92.34
46394;BME280;32099;53.588;10.176;2024-03-22T07:26:53;100993.28;;;10.92;91.96
46394;BME280;32099;53.588;10.176;2024-03-22T07:29:18;100986.78;;;10.93;92.98
46394;BME280;32099;53.588;10.176;2024-03-22T07:31:47;100985.59;;;10.96;92.58
46394;BME280;32099;53.588;10.176;2024-03-22T07:34:12;100993.22;;;11.01;92.05
46394;BME280;32099;53.588;10.176;2024-03-22T07:36:38;100991.34;;;11.01;92.82
46394;BME280;32099;53.588;10.176;2024-03-22T07:39:04;100994.72;;;11.03;92.51
46394;BME280;32099;53.588;10.176;2024-03-22T07:41:30;100986.19;;;11.06;92.31
46394;BME280;32099;53.588;10.176;2024-03-22T07:43:55;100989.09;;;11.05;92.91
46394;BME280;32099;53.588;10.176;2024-03-22T07:46:21;101000.50;;;11.08;92.88
46394;BME280;32099;53.588;10.176;2024-03-22T07:48:49;100988.38;;;11.11;91.86
46394;BME280;32099;53.588;10.176;2024-03-22T07:51:15;100983.22;;;11.16;92.46
46394;BME280;32099;53.588;10.176;2024-03-22T07:53:41;100994.81;;;11.18;91.45
46394;BME280;32099;53.588;10.176;2024-03-22T07:56:06;100991.03;;;11.19;92.34
46394;BME280;32099;53.588;10.176;2024-03-22T07:58:32;100994.81;;;11.18;91.66
46394;BME280;32099;53.588;10.176;2024-03-22T08:00:58;100989.00;;;11.21;92.09
46394;BME280;32099;53.588;10.176;2024-03-22T08:03:23;100989.66;;;11.23;92.17
46394;BME280;32099;53.588;10.176;2024-03-22T08:05:52;100989.19;;;11.20;93.78
46394;BME280;32099;53.588;10.176;2024-03-22T08:08:17;100985.94;;;11.16;94.48
46394;BME280;32099;53.588;10.176;2024-03-22T08:10:43;100984.63;;;11.12;94.62
46394;BME280;32099;53.588;10.176;2024-03-22T08:13:09;100981.56;;;11.07;94.24
46394;BME280;32099;53.588;10.176;2024-03-22T08:15:34;100976.50;;;11.04;94.08
46394;BME280;32099;53.588;10.176;2024-03-22T08:18:00;100984.00;;;11.02;95.27
46394;BME280;32099;53.588;10.176;2024-03-22T08:20:26;100966.97;;;11.00;95.44
46394;BME280;32099;53.588;10.176;2024-03-22T08:22:54;100967.63;;;11.02;94.98
46394;BME280;32099;53.588;10.176;2024-03-22T08:25:20;100971.19;;;11.02;95.40
46394;BME280;32099;53.588;10.176;2024-03-22T08:27:46;100963.88;;;11.03;95.71
46394;BME280;32099;53.588;10.176;2024-03-22T08:30:12;100961.78;;;11.05;96.21
46394;BME280;32099;53.588;10.176;2024-03-22T08:32:38;100969.81;;;11.06;96.84
46394;BME280;32099;53.588;10.176;2024-03-22T08:35:04;100965.88;;;11.09;95.93
46394;BME280;32099;53.588;10.176;2024-03-22T08:37:31;100959.03;;;11.13;96.34
46394;BME280;32099;53.588;10.176;2024-03-22T08:40:00;100967.03;;;11.15;96.55
46394;BME280;32099;53.588;10.176;2024-03-22T08:42:25;100965.16;;;11.15;95.21
46394;BME280;32099;53.588;10.176;2024-03-22T08:44:51;100951.50;;;11.15;96.18
46394;BME280;32099;53.588;10.176;2024-03-22T08:47:17;100957.63;;;11.17;95.88
46394;BME280;32099;53.588;10.176;2024-03-22T08:49:42;100954.06;;;11.17;94.98
46394;BME280;32099;53.588;10.176;2024-03-22T08:52:08;100951.50;;;11.15;96.26
46394;BME280;32099;53.588;10.176;2024-03-22T08:54:34;100944.34;;;11.14;95.87
46394;BME280;32099;53.588;10.176;2024-03-22T08:57:02;100944.72;;;11.11;96.20
46394;BME280;32099;53.588;10.176;2024-03-22T08:59:28;100943.84;;;11.10;96.06
46394;BME280;32099;53.588;10.176;2024-03-22T09:01:53;100949.97;;;11.13;95.80
46394;BME280;32099;53.588;10.176;2024-03-22T09:04:19;100944.72;;;11.11;96.74
46394;BME280;32099;53.588;10.176;2024-03-22T09:06:45;100945.94;;;11.08;97.34
46394;BME280;32099;53.588;10.176;2024-03-22T09:09:11;100941.66;;;11.06;97.31
46394;BME280;32099;53.588;10.176;2024-03-22T09:11:36;100941.88;;;11.04;95.41
46394;BME280;32099;53.588;10.176;2024-03-22T09:14:05;100935.56;;;11.04;97.42
46394;BME280;32099;53.588;10.176;2024-03-22T09:16:31;100939.97;;;11.05;98.02
46394;BME280;32099;53.588;10.176;2024-03-22T09:18:56;100929.25;;;11.03;98.36
46394;BME280;32099;53.588;10.176;2024-03-22T09:21:22;100929.44;;;11.02;98.71
46394;BME280;32099;53.588;10.176;2024-03-22T09:23:47;100921.06;;;11.03;97.91
46394;BME280;32099;53.588;10.176;2024-03-22T09:26:14;100936.59;;;11.03;99.67
46394;BME280;32099;53.588;10.176;2024-03-22T09:28:40;100929.59;;;11.00;98.66
46394;BME280;32099;53.588;10.176;2024-03-22T09:31:08;100918.69;;;11.00;99.34
46394;BME280;32099;53.588;10.176;2024-03-22T09:33:34;100906.75;;;11.01;98.86
46394;BME280;32099;53.588;10.176;2024-03-22T09:36:00;100901.75;;;11.05;98.34
46394;BME280;32099;53.588;10.176;2024-03-22T09:38:26;100903.84;;;11.03;98.49
46394;BME280;32099;53.588;10.176;2024-03-22T09:40:51;100904.88;;;11.02;99.00
46394;BME280;32099;53.588;10.176;2024-03-22T09:43:17;100911.00;;;11.04;99.60
46394;BME280;32099;53.588;10.176;2024-03-22T09:45:43;100902.63;;;11.05;99.05
46394;BME280;32099;53.588;10.176;2024-03-22T09:48:13;100891.50;;;11.07;99.19
46394;BME280;32099;53.588;10.176;2024-03-22T09:50:39;100899.16;;;11.11;98.68
46394;BME280;32099;53.588;10.176;2024-03-22T09:53:06;100892.13;;;11.17;99.23
46394;BME280;32099;53.588;10.176;2024-03-22T09:55:34;100890.59;;;11.15;99.54
46394;BME280;32099;53.588;10.176;2024-03-22T09:58:01;100882.97;;;11.10;96.96
46394;BME280;32099;53.588;10.176;2024-03-22T10:00:27;100884.38;;;11.06;98.30
46394;BME280;32099;53.588;10.176;2024-03-22T10:02:53;100891.50;;;11.07;97.66
46394;BME280;32099;53.588;10.176;2024-03-22T10:05:22;100887.94;;;11.06;98.08
46394;BME280;32099;53.588;10.176;2024-03-22T10:07:48;100890.00;;;11.04;99.55
46394;BME280;32099;53.588;10.176;2024-03-22T10:10:14;100875.69;;;11.02;99.60
46394;BME280;32099;53.588;10.176;2024-03-22T10:12:40;100878.25;;;11.04;99.53
46394;BME280;32099;53.588;10.176;2024-03-22T10:15:06;100876.56;;;11.03;98.81
46394;BME280;32099;53.588;10.176;2024-03-22T10:17:32;100868.72;;;11.00;99.68
46394;BME280;32099;53.588;10.176;2024-03-22T10:19:57;100870.59;;;10.99;100.00
46394;BME280;32099;53.588;10.176;2024-03-22T10:22:26;100877.13;;;10.98;100.00
46394;BME280;32099;53.588;10.176;2024-03-22T10:24:52;100868.72;;;11.00;100.00
46394;BME280;32099;53.588;10.176;2024-03-22T10:27:17;100876.72;;;11.01;100.00
46394;BME280;32099;53.588;10.176;2024-03-22T10:29:44;100877.75;;;11.00;100.00
46394;BME280;32099;53.588;10.176;2024-03-22T10:32:12;100876.91;;;11.00;100.00
46394;BME280;32099;53.588;10.176;2024-03-22T10:34:39;100879.47;;;11.01;100.00
46394;BME280;32099;53.588;10.176;2024-03-22T10:37:07;100876.56;;;11.03;100.00
46394;BME280;32099;53.588;10.176;2024-03-22T10:39:38;100875.16;;;11.07;100.00
46394;BME280;32099;53.588;10.176;2024-03-22T10:42:05;100878.91;;;11.06;100.00
46394;BME280;32099;53.588;10.176;2024-03-22T10:44:36;100874.88;;;11.02;100.00
46394;BME280;32099;53.588;10.176;2024-03-22T10:47:02;100874.00;;;11.01;100.00
46394;BME280;32099;53.588;10.176;2024-03-22T10:49:30;100879.66;;;11.00;100.00
46394;BME280;32099;53.588;10.176;2024-03-22T10:52:02;100871.47;;;11.00;100.00
46394;BME280;32099;53.588;10.176;2024-03-22T10:54:30;100871.66;;;10.98;100.00
46394;BME280;32099;53.588;10.176;2024-03-22T10:57:01;100873.53;;;10.98;100.00
46394;BME280;32099;53.588;10.176;2024-03-22T10:59:33;100864.31;;;10.99;100.00
46394;BME280;32099;53.588;10.176;2024-03-22T11:02:02;100863.94;;;11.02;100.00
46394;BME280;32099;53.588;10.176;2024-03-22T11:04:29;100861.38;;;11.00;100.00
46394;BME280;32099;53.588;10.176;2024-03-22T11:06:56;100868.25;;;10.96;100.00
46394;BME280;32099;53.588;10.176;2024-03-22T11:09:22;100864.00;;;10.93;100.00
46394;BME280;32099;53.588;10.176;2024-03-22T11:11:47;100866.91;;;10.92;100.00
46394;BME280;32099;53.588;10.176;2024-03-22T11:14:16;100869.84;;;10.90;100.00
46394;BME280;32099;53.588;10.176;2024-03-22T11:16:42;100801.59;;;10.52;100.00
46394;BME280;32099;53.588;10.176;2024-03-22T11:19:08;100861.47;;;10.92;100.00
46394;BME280;32099;53.588;10.176;2024-03-22T11:21:34;100851.22;;;10.94;100.00
46394;BME280;32099;53.588;10.176;2024-03-22T11:24:00;100854.41;;;10.98;100.00
46394;BME280;32099;53.588;10.176;2024-03-22T11:26:25;100853.72;;;11.04;100.00
46394;BME280;32099;53.588;10.176;2024-03-22T11:28:51;100846.81;;;11.08;100.00
46394;BME280;32099;53.588;10.176;2024-03-22T11:31:19;100846.34;;;11.04;100.00
46394;BME280;32099;53.588;10.176;2024-03-22T11:33:45;100850.97;;;11.04;100.00
46394;BME280;32099;53.588;10.176;2024-03-22T11:36:11;100839.38;;;11.02;100.00
46394;BME280;32099;53.588;10.176;2024-03-22T11:38:37;100843.97;;;11.01;100.00
46394;BME280;32099;53.588;10.176;2024-03-22T11:41:02;100813.72;;;10.88;100.00
46394;BME280;32099;53.588;10.176;2024-03-22T11:43:29;100826.94;;;10.99;100.00
46394;BME280;32099;53.588;10.176;2024-03-22T11:45:55;100830.19;;;11.03;100.00
46394;BME280;32099;53.588;10.176;2024-03-22T11:48:24;100835.44;;;11.04;100.00
46394;BME280;32099;53.588;10.176;2024-03-22T11:50:49;100836.28;;;11.05;100.00
46394;BME280;32099;53.588;10.176;2024-03-22T11:53:15;100837.69;;;11.01;100.00
46394;BME280;32099;53.588;10.176;2024-03-22T11:55:41;100819.81;;;10.98;100.00
46394;BME280;32099;53.588;10.176;2024-03-22T11:58:08;100823.38;;;10.99;100.00
46394;BME280;32099;53.588;10.176;2024-03-22T12:00:34;100822.34;;;11.00;100.00
46394;BME280;32099;53.588;10.176;2024-03-22T12:03:00;100820.09;;;11.03;100.00
46394;BME280;32099;53.588;10.176;2024-03-22T12:05:29;100825.34;;;11.05;100.00
46394;BME280;32099;53.588;10.176;2024-03-22T12:07:55;100814.44;;;11.05;100.00
46394;BME280;32099;53.588;10.176;2024-03-22T12:10:21;100817.47;;;11.10;100.00
46394;BME280;32099;53.588;10.176;2024-03-22T12:12:46;100805.34;;;11.13;100.00
46394;BME280;32099;53.588;10.176;2024-03-22T12:15:12;100815.06;;;11.15;100.00
46394;BME280;32099;53.588;10.176;2024-03-22T12:17:38;100809.59;;;11.15;100.00
46394;BME280;32099;53.588;10.176;2024-03-22T12:20:04;100796.44;;;11.19;100.00
46394;BME280;32099;53.588;10.176;2024-03-22T12:22:33;100796.59;;;11.17;99.87
46394;BME280;32099;53.588;10.176;2024-03-22T12:24:59;100799.31;;;11.17;99.85
46394;BME280;32099;53.588;10.176;2024-03-22T12:27:25;100799.50;;;11.16;99.73
46394;BME280;32099;53.588;10.176;2024-03-22T12:29:50;100790.28;;;11.17;100.00
46394;BME280;32099;53.588;10.176;2024-03-22T12:32:16;100799.88;;;11.13;100.00
46394;BME280;32099;53.588;10.176;2024-03-22T12:34:42;100792.91;;;11.10;100.00
46394;BME280;32099;53.588;10.176;2024-03-22T12:37:08;100793.75;;;11.10;100.00